sensor_id;sensor_type;location;lat;lon;timestamp;P1;durP1;ratioP1;P2;durP2;ratioP2
16147;SDS011;8179;59.364;18.018;2023-02-28T00:00:49;184.97;;;179.40;;
16147;SDS011;8179;59.364;18.018;2023-02-28T00:03:15;207.73;;;201.53;;
16147;SDS011;8179;59.364;18.018;2023-02-28T00:05:43;209.33;;;203.13;;
16147;SDS011;8179;59.364;18.018;2023-02-28T00:08:10;217.93;;;211.27;;
16147;SDS011;8179;59.364;18.018;2023-02-28T00:10:38;224.47;;;217.67;;
16147;SDS011;8179;59.364;18.018;2023-02-28T00:13:05;222.80;;;216.13;;
16147;SDS011;8179;59.364;18.018;2023-02-28T00:15:32;234.80;;;227.73;;
16147;SDS011;8179;59.364;18.018;2023-02-28T00:17:59;223.27;;;216.60;;
16147;SDS011;8179;59.364;18.018;2023-02-28T00:20:25;224.57;;;217.77;;
16147;SDS011;8179;59.364;18.018;2023-02-28T00:22:54;214.20;;;207.80;;
16147;SDS011;8179;59.364;18.018;2023-02-28T00:25:21;214.07;;;207.57;;
16147;SDS011;8179;59.364;18.018;2023-02-28T00:27:48;204.23;;;197.83;;
16147;SDS011;8179;59.364;18.018;2023-02-28T00:30:16;206.90;;;200.67;;
16147;SDS011;8179;59.364;18.018;2023-02-28T00:32:42;230.07;;;223.17;;
16147;SDS011;8179;59.364;18.018;2023-02-28T00:35:09;208.00;;;201.73;;
16147;SDS011;8179;59.364;18.018;2023-02-28T00:37:36;199.40;;;193.43;;
16147;SDS011;8179;59.364;18.018;2023-02-28T00:40:05;209.60;;;203.23;;
16147;SDS011;8179;59.364;18.018;2023-02-28T00:42:33;218.67;;;212.17;;
16147;SDS011;8179;59.364;18.018;2023-02-28T00:44:59;238.83;;;231.50;;
16147;SDS011;8179;59.364;18.018;2023-02-28T00:47:26;216.70;;;210.13;;
16147;SDS011;8179;59.364;18.018;2023-02-28T00:49:53;214.57;;;208.00;;
16147;SDS011;8179;59.364;18.018;2023-02-28T00:52:19;216.83;;;210.37;;
16147;SDS011;8179;59.364;18.018;2023-02-28T00:54:46;210.73;;;204.33;;
16147;SDS011;8179;59.364;18.018;2023-02-28T00:57:14;213.50;;;207.10;;
16147;SDS011;8179;59.364;18.018;2023-02-28T00:59:41;237.87;;;230.70;;
16147;SDS011;8179;59.364;18.018;2023-02-28T01:02:07;195.03;;;189.20;;
16147;SDS011;8179;59.364;18.018;2023-02-28T01:04:34;256.07;;;248.13;;
16147;SDS011;8179;59.364;18.018;2023-02-28T01:07:00;202.80;;;196.77;;
16147;SDS011;8179;59.364;18.018;2023-02-28T01:09:27;214.60;;;208.20;;
16147;SDS011;8179;59.364;18.018;2023-02-28T01:11:54;216.10;;;209.70;;
16147;SDS011;8179;59.364;18.018;2023-02-28T01:14:22;217.13;;;210.70;;
16147;SDS011;8179;59.364;18.018;2023-02-28T01:16:48;153.53;;;148.90;;
16147;SDS011;8179;59.364;18.018;2023-02-28T01:19:16;214.33;;;207.87;;
16147;SDS011;8179;59.364;18.018;2023-02-28T01:21:43;205.27;;;199.17;;
16147;SDS011;8179;59.364;18.018;2023-02-28T01:24:09;344.33;;;332.30;;
16147;SDS011;8179;59.364;18.018;2023-02-28T01:26:36;243.70;;;236.47;;
16147;SDS011;8179;59.364;18.018;2023-02-28T01:29:03;201.93;;;195.93;;
16147;SDS011;8179;59.364;18.018;2023-02-28T01:31:30;205.00;;;198.90;;
16147;SDS011;8179;59.364;18.018;2023-02-28T01:33:57;286.67;;;275.57;;
16147;SDS011;8179;59.364;18.018;2023-02-28T01:36:24;209.53;;;203.27;;
16147;SDS011;8179;59.364;18.018;2023-02-28T01:38:51;212.77;;;206.37;;
16147;SDS011;8179;59.364;18.018;2023-02-28T01:41:18;243.33;;;235.90;;
16147;SDS011;8179;59.364;18.018;2023-02-28T01:43:55;213.93;;;207.57;;
16147;SDS011;8179;59.364;18.018;2023-02-28T01:46:22;218.17;;;211.63;;
16147;SDS011;8179;59.364;18.018;2023-02-28T01:48:51;163.67;;;158.70;;
16147;SDS011;8179;59.364;18.018;2023-02-28T01:51:19;227.73;;;221.00;;
16147;SDS011;8179;59.364;18.018;2023-02-28T01:53:49;213.70;;;207.37;;
16147;SDS011;8179;59.364;18.018;2023-02-28T01:56:17;220.73;;;214.17;;
16147;SDS011;8179;59.364;18.018;2023-02-28T01:58:46;215.73;;;209.27;;
16147;SDS011;8179;59.364;18.018;2023-02-28T02:01:12;174.10;;;168.53;;
16147;SDS011;8179;59.364;18.018;2023-02-28T02:03:46;210.60;;;204.20;;
16147;SDS011;8179;59.364;18.018;2023-02-28T02:06:14;215.77;;;209.20;;
16147;SDS011;8179;59.364;18.018;2023-02-28T02:08:40;225.37;;;218.57;;
16147;SDS011;8179;59.364;18.018;2023-02-28T02:11:07;204.57;;;198.53;;
16147;SDS011;8179;59.364;18.018;2023-02-28T02:13:38;216.80;;;210.33;;
16147;SDS011;8179;59.364;18.018;2023-02-28T02:16:13;198.60;;;192.30;;
16147;SDS011;8179;59.364;18.018;2023-02-28T02:18:43;209.50;;;203.23;;
16147;SDS011;8179;59.364;18.018;2023-02-28T02:24:04;212.33;;;206.03;;
16147;SDS011;8179;59.364;18.018;2023-02-28T02:26:55;200.10;;;194.13;;
16147;SDS011;8179;59.364;18.018;2023-02-28T02:34:53;165.17;;;160.13;;
16147;SDS011;8179;59.364;18.018;2023-02-28T02:37:27;244.43;;;237.13;;
16147;SDS011;8179;59.364;18.018;2023-02-28T02:39:59;169.90;;;164.80;;
16147;SDS011;8179;59.364;18.018;2023-02-28T02:42:27;217.90;;;211.40;;
16147;SDS011;8179;59.364;18.018;2023-02-28T02:44:56;251.37;;;243.57;;
16147;SDS011;8179;59.364;18.018;2023-02-28T02:47:26;184.93;;;179.33;;
16147;SDS011;8179;59.364;18.018;2023-02-28T02:49:56;245.00;;;236.63;;
16147;SDS011;8179;59.364;18.018;2023-02-28T02:52:25;208.10;;;201.93;;
16147;SDS011;8179;59.364;18.018;2023-02-28T02:54:54;207.97;;;201.83;;
16147;SDS011;8179;59.364;18.018;2023-02-28T02:57:23;143.17;;;138.87;;
16147;SDS011;8179;59.364;18.018;2023-02-28T02:59:51;208.27;;;202.10;;
16147;SDS011;8179;59.364;18.018;2023-02-28T03:02:20;169.90;;;164.80;;
16147;SDS011;8179;59.364;18.018;2023-02-28T03:04:48;187.23;;;181.67;;
16147;SDS011;8179;59.364;18.018;2023-02-28T03:07:18;193.23;;;187.47;;
16147;SDS011;8179;59.364;18.018;2023-02-28T03:09:49;210.83;;;204.53;;
16147;SDS011;8179;59.364;18.018;2023-02-28T03:12:16;154.13;;;149.53;;
16147;SDS011;8179;59.364;18.018;2023-02-28T03:14:46;188.43;;;182.90;;
16147;SDS011;8179;59.364;18.018;2023-02-28T03:17:20;168.53;;;163.50;;
16147;SDS011;8179;59.364;18.018;2023-02-28T03:19:52;231.37;;;224.10;;
16147;SDS011;8179;59.364;18.018;2023-02-28T03:22:30;131.33;;;126.87;;
16147;SDS011;8179;59.364;18.018;2023-02-28T03:25:01;152.37;;;147.80;;
16147;SDS011;8179;59.364;18.018;2023-02-28T03:27:31;169.77;;;164.50;;
16147;SDS011;8179;59.364;18.018;2023-02-28T03:30:01;194.37;;;188.47;;
16147;SDS011;8179;59.364;18.018;2023-02-28T03:32:29;169.47;;;164.40;;
16147;SDS011;8179;59.364;18.018;2023-02-28T03:35:01;135.30;;;131.20;;
16147;SDS011;8179;59.364;18.018;2023-02-28T03:37:32;192.50;;;186.77;;
16147;SDS011;8179;59.364;18.018;2023-02-28T03:40:04;191.00;;;185.23;;
16147;SDS011;8179;59.364;18.018;2023-02-28T03:42:33;159.83;;;155.00;;
16147;SDS011;8179;59.364;18.018;2023-02-28T03:45:02;253.90;;;246.30;;
16147;SDS011;8179;59.364;18.018;2023-02-28T03:47:33;184.80;;;179.20;;
16147;SDS011;8179;59.364;18.018;2023-02-28T03:50:04;166.90;;;161.73;;
16147;SDS011;8179;59.364;18.018;2023-02-28T03:52:34;163.60;;;158.70;;
16147;SDS011;8179;59.364;18.018;2023-02-28T03:55:03;233.77;;;226.17;;
16147;SDS011;8179;59.364;18.018;2023-02-28T03:57:33;192.77;;;186.90;;
16147;SDS011;8179;59.364;18.018;2023-02-28T04:00:02;203.27;;;197.27;;
16147;SDS011;8179;59.364;18.018;2023-02-28T04:02:31;157.03;;;152.37;;
16147;SDS011;8179;59.364;18.018;2023-02-28T04:04:57;191.43;;;185.70;;
16147;SDS011;8179;59.364;18.018;2023-02-28T04:07:24;195.07;;;189.23;;
16147;SDS011;8179;59.364;18.018;2023-02-28T04:09:52;156.40;;;151.70;;
16147;SDS011;8179;59.364;18.018;2023-02-28T04:12:19;169.07;;;164.03;;
16147;SDS011;8179;59.364;18.018;2023-02-28T04:14:48;154.50;;;149.87;;
16147;SDS011;8179;59.364;18.018;2023-02-28T04:17:14;150.43;;;145.93;;
16147;SDS011;8179;59.364;18.018;2023-02-28T04:19:41;193.50;;;187.77;;
16147;SDS011;8179;59.364;18.018;2023-02-28T04:22:08;210.70;;;204.20;;
16147;SDS011;8179;59.364;18.018;2023-02-28T04:24:35;159.47;;;154.67;;
16147;SDS011;8179;59.364;18.018;2023-02-28T04:27:03;171.77;;;166.60;;
16147;SDS011;8179;59.364;18.018;2023-02-28T04:29:30;153.37;;;148.80;;
16147;SDS011;8179;59.364;18.018;2023-02-28T04:31:58;152.83;;;148.07;;
16147;SDS011;8179;59.364;18.018;2023-02-28T04:34:25;204.13;;;198.00;;
16147;SDS011;8179;59.364;18.018;2023-02-28T04:36:52;193.27;;;187.57;;
16147;SDS011;8179;59.364;18.018;2023-02-28T04:39:19;195.97;;;190.07;;
16147;SDS011;8179;59.364;18.018;2023-02-28T04:41:46;150.53;;;146.03;;
16147;SDS011;8179;59.364;18.018;2023-02-28T04:44:14;163.37;;;158.47;;
16147;SDS011;8179;59.364;18.018;2023-02-28T04:46:41;129.17;;;125.17;;
16147;SDS011;8179;59.364;18.018;2023-02-28T04:49:08;214.67;;;207.97;;
16147;SDS011;8179;59.364;18.018;2023-02-28T04:51:34;136.07;;;131.63;;
16147;SDS011;8179;59.364;18.018;2023-02-28T04:54:03;177.33;;;171.97;;
16147;SDS011;8179;59.364;18.018;2023-02-28T04:56:30;182.33;;;176.90;;
16147;SDS011;8179;59.364;18.018;2023-02-28T04:58:56;132.20;;;128.13;;
16147;SDS011;8179;59.364;18.018;2023-02-28T05:01:25;219.27;;;212.50;;
16147;SDS011;8179;59.364;18.018;2023-02-28T05:03:52;262.53;;;254.50;;
16147;SDS011;8179;59.364;18.018;2023-02-28T05:06:19;192.50;;;186.73;;
16147;SDS011;8179;59.364;18.018;2023-02-28T05:08:46;165.43;;;160.20;;
16147;SDS011;8179;59.364;18.018;2023-02-28T05:11:17;178.93;;;173.47;;
16147;SDS011;8179;59.364;18.018;2023-02-28T05:13:43;222.67;;;215.73;;
16147;SDS011;8179;59.364;18.018;2023-02-28T05:16:10;154.00;;;149.37;;
16147;SDS011;8179;59.364;18.018;2023-02-28T05:18:38;135.23;;;131.13;;
16147;SDS011;8179;59.364;18.018;2023-02-28T05:21:05;182.63;;;177.17;;
16147;SDS011;8179;59.364;18.018;2023-02-28T05:23:31;226.53;;;219.63;;
16147;SDS011;8179;59.364;18.018;2023-02-28T05:25:58;220.57;;;213.83;;
16147;SDS011;8179;59.364;18.018;2023-02-28T05:28:25;129.80;;;125.87;;
16147;SDS011;8179;59.364;18.018;2023-02-28T05:30:51;145.50;;;141.10;;
16147;SDS011;8179;59.364;18.018;2023-02-28T05:33:18;149.80;;;145.03;;
16147;SDS011;8179;59.364;18.018;2023-02-28T05:35:46;99.87;;;96.80;;
16147;SDS011;8179;59.364;18.018;2023-02-28T05:38:12;141.63;;;137.33;;
16147;SDS011;8179;59.364;18.018;2023-02-28T05:40:39;182.97;;;177.43;;
16147;SDS011;8179;59.364;18.018;2023-02-28T05:43:07;161.33;;;156.50;;
16147;SDS011;8179;59.364;18.018;2023-02-28T05:45:35;165.57;;;160.53;;
16147;SDS011;8179;59.364;18.018;2023-02-28T05:48:03;151.97;;;147.20;;
16147;SDS011;8179;59.364;18.018;2023-02-28T05:50:30;162.13;;;157.17;;
16147;SDS011;8179;59.364;18.018;2023-02-28T05:52:58;181.03;;;175.43;;
16147;SDS011;8179;59.364;18.018;2023-02-28T05:55:24;129.20;;;125.13;;
16147;SDS011;8179;59.364;18.018;2023-02-28T05:57:51;138.80;;;134.60;;
16147;SDS011;8179;59.364;18.018;2023-02-28T06:00:18;230.60;;;223.23;;
16147;SDS011;8179;59.364;18.018;2023-02-28T06:02:45;198.50;;;192.40;;
16147;SDS011;8179;59.364;18.018;2023-02-28T06:05:13;144.70;;;140.33;;
16147;SDS011;8179;59.364;18.018;2023-02-28T06:07:40;213.77;;;207.03;;
16147;SDS011;8179;59.364;18.018;2023-02-28T06:10:08;323.97;;;313.80;;
16147;SDS011;8179;59.364;18.018;2023-02-28T06:12:35;181.07;;;175.67;;
16147;SDS011;8179;59.364;18.018;2023-02-28T06:15:02;254.50;;;246.63;;
16147;SDS011;8179;59.364;18.018;2023-02-28T06:17:28;270.67;;;262.23;;
16147;SDS011;8179;59.364;18.018;2023-02-28T06:19:55;244.60;;;236.57;;
16147;SDS011;8179;59.364;18.018;2023-02-28T06:22:21;334.87;;;323.83;;
16147;SDS011;8179;59.364;18.018;2023-02-28T06:24:48;285.57;;;276.73;;
16147;SDS011;8179;59.364;18.018;2023-02-28T06:27:16;292.43;;;283.30;;
16147;SDS011;8179;59.364;18.018;2023-02-28T06:29:43;290.50;;;281.13;;
16147;SDS011;8179;59.364;18.018;2023-02-28T06:32:09;285.80;;;276.83;;
16147;SDS011;8179;59.364;18.018;2023-02-28T06:34:36;189.60;;;183.70;;
16147;SDS011;8179;59.364;18.018;2023-02-28T06:37:02;185.30;;;179.73;;
16147;SDS011;8179;59.364;18.018;2023-02-28T06:39:29;144.20;;;139.80;;
16147;SDS011;8179;59.364;18.018;2023-02-28T06:41:56;197.87;;;191.73;;
16147;SDS011;8179;59.364;18.018;2023-02-28T06:44:24;228.77;;;221.63;;
16147;SDS011;8179;59.364;18.018;2023-02-28T06:46:50;180.90;;;175.37;;
16147;SDS011;8179;59.364;18.018;2023-02-28T06:49:17;176.83;;;171.43;;
16147;SDS011;8179;59.364;18.018;2023-02-28T06:51:44;210.57;;;204.23;;
16147;SDS011;8179;59.364;18.018;2023-02-28T06:54:11;144.07;;;139.50;;
16147;SDS011;8179;59.364;18.018;2023-02-28T06:56:38;180.30;;;174.87;;
16147;SDS011;8179;59.364;18.018;2023-02-28T06:59:04;180.30;;;174.93;;
16147;SDS011;8179;59.364;18.018;2023-02-28T07:01:32;191.50;;;185.70;;
16147;SDS011;8179;59.364;18.018;2023-02-28T07:03:59;156.67;;;151.57;;
16147;SDS011;8179;59.364;18.018;2023-02-28T07:06:26;131.00;;;126.90;;
16147;SDS011;8179;59.364;18.018;2023-02-28T07:08:53;126.23;;;122.33;;
16147;SDS011;8179;59.364;18.018;2023-02-28T07:11:20;113.37;;;109.60;;
16147;SDS011;8179;59.364;18.018;2023-02-28T07:13:47;159.77;;;154.97;;
16147;SDS011;8179;59.364;18.018;2023-02-28T07:16:14;121.23;;;117.53;;
16147;SDS011;8179;59.364;18.018;2023-02-28T07:18:42;124.17;;;120.43;;
16147;SDS011;8179;59.364;18.018;2023-02-28T07:21:11;197.30;;;191.33;;
16147;SDS011;8179;59.364;18.018;2023-02-28T07:23:38;171.43;;;166.17;;
16147;SDS011;8179;59.364;18.018;2023-02-28T07:26:05;182.23;;;176.70;;
16147;SDS011;8179;59.364;18.018;2023-02-28T07:28:32;258.23;;;250.30;;
16147;SDS011;8179;59.364;18.018;2023-02-28T07:31:02;181.40;;;175.83;;
16147;SDS011;8179;59.364;18.018;2023-02-28T07:33:29;105.07;;;101.70;;
16147;SDS011;8179;59.364;18.018;2023-02-28T07:36:06;179.90;;;174.00;;
16147;SDS011;8179;59.364;18.018;2023-02-28T07:38:33;144.93;;;140.57;;
16147;SDS011;8179;59.364;18.018;2023-02-28T07:40:59;125.33;;;121.30;;
16147;SDS011;8179;59.364;18.018;2023-02-28T07:43:29;154.13;;;149.50;;
16147;SDS011;8179;59.364;18.018;2023-02-28T07:45:58;130.67;;;126.60;;
16147;SDS011;8179;59.364;18.018;2023-02-28T07:48:29;129.33;;;125.27;;
16147;SDS011;8179;59.364;18.018;2023-02-28T07:50:56;143.43;;;139.13;;
16147;SDS011;8179;59.364;18.018;2023-02-28T07:53:24;131.97;;;128.00;;
16147;SDS011;8179;59.364;18.018;2023-02-28T07:55:51;135.77;;;131.67;;
16147;SDS011;8179;59.364;18.018;2023-02-28T07:58:20;138.77;;;134.50;;
16147;SDS011;8179;59.364;18.018;2023-02-28T08:00:47;115.73;;;112.23;;
16147;SDS011;8179;59.364;18.018;2023-02-28T08:03:13;124.23;;;120.43;;
16147;SDS011;8179;59.364;18.018;2023-02-28T08:05:40;120.37;;;116.77;;
16147;SDS011;8179;59.364;18.018;2023-02-28T08:08:06;121.57;;;117.70;;
16147;SDS011;8179;59.364;18.018;2023-02-28T08:10:36;91.17;;;88.27;;
16147;SDS011;8179;59.364;18.018;2023-02-28T08:13:02;104.33;;;101.00;;
16147;SDS011;8179;59.364;18.018;2023-02-28T08:15:29;123.83;;;120.07;;
16147;SDS011;8179;59.364;18.018;2023-02-28T08:17:56;119.70;;;116.10;;
16147;SDS011;8179;59.364;18.018;2023-02-28T08:20:23;79.23;;;76.80;;
16147;SDS011;8179;59.364;18.018;2023-02-28T08:22:49;107.27;;;103.97;;
16147;SDS011;8179;59.364;18.018;2023-02-28T08:25:16;84.87;;;82.27;;
16147;SDS011;8179;59.364;18.018;2023-02-28T08:27:44;106.83;;;102.47;;
16147;SDS011;8179;59.364;18.018;2023-02-28T08:30:10;88.37;;;85.60;;
16147;SDS011;8179;59.364;18.018;2023-02-28T08:32:37;91.47;;;88.67;;
16147;SDS011;8179;59.364;18.018;2023-02-28T08:35:04;84.23;;;81.67;;
16147;SDS011;8179;59.364;18.018;2023-02-28T08:37:31;104.80;;;101.63;;
16147;SDS011;8179;59.364;18.018;2023-02-28T08:39:58;84.93;;;82.30;;
16147;SDS011;8179;59.364;18.018;2023-02-28T08:42:24;105.17;;;101.70;;
16147;SDS011;8179;59.364;18.018;2023-02-28T08:44:52;96.30;;;93.33;;
16147;SDS011;8179;59.364;18.018;2023-02-28T08:47:19;81.40;;;78.90;;
16147;SDS011;8179;59.364;18.018;2023-02-28T08:49:45;88.83;;;85.73;;
16147;SDS011;8179;59.364;18.018;2023-02-28T08:52:12;91.13;;;88.30;;
16147;SDS011;8179;59.364;18.018;2023-02-28T08:54:39;65.13;;;63.10;;
16147;SDS011;8179;59.364;18.018;2023-02-28T08:57:05;94.53;;;91.23;;
16147;SDS011;8179;59.364;18.018;2023-02-28T08:59:32;82.70;;;80.17;;
16147;SDS011;8179;59.364;18.018;2023-02-28T09:02:00;70.77;;;68.53;;
16147;SDS011;8179;59.364;18.018;2023-02-28T09:04:26;86.73;;;84.03;;
16147;SDS011;8179;59.364;18.018;2023-02-28T09:06:55;62.63;;;60.67;;
16147;SDS011;8179;59.364;18.018;2023-02-28T09:09:22;61.40;;;59.30;;
16147;SDS011;8179;59.364;18.018;2023-02-28T09:11:48;61.33;;;59.40;;
16147;SDS011;8179;59.364;18.018;2023-02-28T09:14:15;48.80;;;47.23;;
16147;SDS011;8179;59.364;18.018;2023-02-28T09:16:42;49.63;;;48.10;;
16147;SDS011;8179;59.364;18.018;2023-02-28T09:19:11;41.27;;;39.93;;
16147;SDS011;8179;59.364;18.018;2023-02-28T09:21:38;35.73;;;34.43;;
16147;SDS011;8179;59.364;18.018;2023-02-28T09:24:05;40.97;;;39.67;;
16147;SDS011;8179;59.364;18.018;2023-02-28T09:26:32;38.40;;;37.10;;
16147;SDS011;8179;59.364;18.018;2023-02-28T09:28:59;39.73;;;38.47;;
16147;SDS011;8179;59.364;18.018;2023-02-28T09:31:27;44.50;;;43.10;;
16147;SDS011;8179;59.364;18.018;2023-02-28T09:33:55;36.50;;;35.37;;
16147;SDS011;8179;59.364;18.018;2023-02-28T09:36:23;45.30;;;43.87;;
16147;SDS011;8179;59.364;18.018;2023-02-28T09:38:50;32.40;;;31.40;;
16147;SDS011;8179;59.364;18.018;2023-02-28T09:41:19;44.47;;;43.07;;
16147;SDS011;8179;59.364;18.018;2023-02-28T09:43:46;44.53;;;42.60;;
16147;SDS011;8179;59.364;18.018;2023-02-28T09:48:56;36.47;;;35.37;;
16147;SDS011;8179;59.364;18.018;2023-02-28T09:51:30;33.73;;;32.63;;
16147;SDS011;8179;59.364;18.018;2023-02-28T09:53:59;32.57;;;31.57;;
16147;SDS011;8179;59.364;18.018;2023-02-28T09:56:27;33.63;;;32.60;;
16147;SDS011;8179;59.364;18.018;2023-02-28T09:58:56;39.93;;;38.33;;
16147;SDS011;8179;59.364;18.018;2023-02-28T10:01:27;31.00;;;29.87;;
16147;SDS011;8179;59.364;18.018;2023-02-28T10:03:56;29.07;;;28.17;;
16147;SDS011;8179;59.364;18.018;2023-02-28T10:06:26;32.37;;;31.13;;
16147;SDS011;8179;59.364;18.018;2023-02-28T10:09:00;34.57;;;33.30;;
16147;SDS011;8179;59.364;18.018;2023-02-28T10:11:29;35.70;;;34.60;;
16147;SDS011;8179;59.364;18.018;2023-02-28T10:13:59;33.03;;;31.93;;
16147;SDS011;8179;59.364;18.018;2023-02-28T10:16:30;48.53;;;47.00;;
16147;SDS011;8179;59.364;18.018;2023-02-28T10:18:59;44.47;;;42.93;;
16147;SDS011;8179;59.364;18.018;2023-02-28T10:21:31;32.87;;;31.77;;
16147;SDS011;8179;59.364;18.018;2023-02-28T10:24:05;44.50;;;43.00;;
16147;SDS011;8179;59.364;18.018;2023-02-28T10:26:37;33.90;;;32.60;;
16147;SDS011;8179;59.364;18.018;2023-02-28T10:29:03;35.00;;;33.80;;
16147;SDS011;8179;59.364;18.018;2023-02-28T10:31:30;33.13;;;31.83;;
16147;SDS011;8179;59.364;18.018;2023-02-28T10:33:57;41.63;;;39.80;;
16147;SDS011;8179;59.364;18.018;2023-02-28T10:36:23;42.70;;;41.00;;
16147;SDS011;8179;59.364;18.018;2023-02-28T10:38:50;41.90;;;40.57;;
16147;SDS011;8179;59.364;18.018;2023-02-28T10:41:26;33.73;;;32.73;;
16147;SDS011;8179;59.364;18.018;2023-02-28T10:43:53;32.80;;;31.70;;
16147;SDS011;8179;59.364;18.018;2023-02-28T10:46:38;32.67;;;31.67;;
16147;SDS011;8179;59.364;18.018;2023-02-28T10:49:07;41.30;;;39.93;;
16147;SDS011;8179;59.364;18.018;2023-02-28T10:51:39;37.60;;;36.37;;
16147;SDS011;8179;59.364;18.018;2023-02-28T10:54:12;40.80;;;38.23;;
16147;SDS011;8179;59.364;18.018;2023-02-28T10:56:42;34.00;;;32.73;;
16147;SDS011;8179;59.364;18.018;2023-02-28T10:59:22;39.47;;;38.07;;
16147;SDS011;8179;59.364;18.018;2023-02-28T11:01:52;36.03;;;34.43;;
16147;SDS011;8179;59.364;18.018;2023-02-28T11:04:20;39.00;;;37.67;;
16147;SDS011;8179;59.364;18.018;2023-02-28T11:06:58;37.63;;;36.10;;
16147;SDS011;8179;59.364;18.018;2023-02-28T11:09:26;40.13;;;38.83;;
16147;SDS011;8179;59.364;18.018;2023-02-28T11:11:56;39.83;;;38.30;;
16147;SDS011;8179;59.364;18.018;2023-02-28T11:14:24;37.47;;;36.00;;
16147;SDS011;8179;59.364;18.018;2023-02-28T11:16:51;37.43;;;36.07;;
16147;SDS011;8179;59.364;18.018;2023-02-28T11:19:19;34.80;;;33.43;;
16147;SDS011;8179;59.364;18.018;2023-02-28T11:21:48;40.47;;;39.17;;
16147;SDS011;8179;59.364;18.018;2023-02-28T11:24:19;37.40;;;36.13;;
16147;SDS011;8179;59.364;18.018;2023-02-28T11:26:47;32.23;;;31.23;;
16147;SDS011;8179;59.364;18.018;2023-02-28T11:29:18;34.77;;;33.57;;
16147;SDS011;8179;59.364;18.018;2023-02-28T11:32:04;34.50;;;33.20;;
16147;SDS011;8179;59.364;18.018;2023-02-28T11:34:32;34.83;;;33.43;;
16147;SDS011;8179;59.364;18.018;2023-02-28T11:36:59;34.03;;;31.70;;
16147;SDS011;8179;59.364;18.018;2023-02-28T11:39:29;30.63;;;28.87;;
16147;SDS011;8179;59.364;18.018;2023-02-28T11:42:03;31.30;;;29.73;;
16147;SDS011;8179;59.364;18.018;2023-02-28T11:44:38;29.77;;;28.67;;
16147;SDS011;8179;59.364;18.018;2023-02-28T11:47:17;29.97;;;28.97;;
16147;SDS011;8179;59.364;18.018;2023-02-28T11:49:47;30.90;;;29.63;;
16147;SDS011;8179;59.364;18.018;2023-02-28T11:52:19;32.53;;;31.23;;
16147;SDS011;8179;59.364;18.018;2023-02-28T11:54:57;28.97;;;28.03;;
16147;SDS011;8179;59.364;18.018;2023-02-28T11:57:30;33.30;;;32.23;;
16147;SDS011;8179;59.364;18.018;2023-02-28T12:00:02;36.10;;;34.47;;
16147;SDS011;8179;59.364;18.018;2023-02-28T12:02:35;41.43;;;39.43;;
16147;SDS011;8179;59.364;18.018;2023-02-28T12:05:15;27.97;;;26.97;;
16147;SDS011;8179;59.364;18.018;2023-02-28T12:07:47;28.60;;;27.37;;
16147;SDS011;8179;59.364;18.018;2023-02-28T12:10:20;29.67;;;28.50;;
16147;SDS011;8179;59.364;18.018;2023-02-28T12:12:48;29.47;;;28.07;;
16147;SDS011;8179;59.364;18.018;2023-02-28T12:15:34;28.20;;;26.57;;
16147;SDS011;8179;59.364;18.018;2023-02-28T12:18:07;30.10;;;29.17;;
16147;SDS011;8179;59.364;18.018;2023-02-28T12:20:41;22.43;;;21.57;;
16147;SDS011;8179;59.364;18.018;2023-02-28T12:23:19;22.90;;;22.10;;
16147;SDS011;8179;59.364;18.018;2023-02-28T12:25:50;23.73;;;22.93;;
16147;SDS011;8179;59.364;18.018;2023-02-28T12:28:20;30.87;;;29.13;;
16147;SDS011;8179;59.364;18.018;2023-02-28T12:30:50;28.07;;;27.07;;
16147;SDS011;8179;59.364;18.018;2023-02-28T12:33:20;25.57;;;24.67;;
16147;SDS011;8179;59.364;18.018;2023-02-28T12:35:51;26.20;;;25.30;;
16147;SDS011;8179;59.364;18.018;2023-02-28T12:38:21;25.83;;;24.93;;
16147;SDS011;8179;59.364;18.018;2023-02-28T12:40:49;26.07;;;25.17;;
16147;SDS011;8179;59.364;18.018;2023-02-28T12:43:17;26.60;;;25.77;;
16147;SDS011;8179;59.364;18.018;2023-02-28T12:45:46;28.30;;;27.20;;
16147;SDS011;8179;59.364;18.018;2023-02-28T12:48:18;31.83;;;30.53;;
16147;SDS011;8179;59.364;18.018;2023-02-28T12:50:46;29.83;;;28.30;;
16147;SDS011;8179;59.364;18.018;2023-02-28T12:53:15;31.70;;;30.40;;
16147;SDS011;8179;59.364;18.018;2023-02-28T12:55:45;39.40;;;38.13;;
16147;SDS011;8179;59.364;18.018;2023-02-28T12:58:17;29.53;;;28.53;;
16147;SDS011;8179;59.364;18.018;2023-02-28T13:00:50;30.17;;;29.17;;
16147;SDS011;8179;59.364;18.018;2023-02-28T13:03:38;32.83;;;31.83;;
16147;SDS011;8179;59.364;18.018;2023-02-28T13:06:14;34.17;;;33.00;;
16147;SDS011;8179;59.364;18.018;2023-02-28T13:08:51;34.60;;;33.10;;
16147;SDS011;8179;59.364;18.018;2023-02-28T13:11:25;35.97;;;34.67;;
16147;SDS011;8179;59.364;18.018;2023-02-28T13:19:30;36.80;;;35.63;;
16147;SDS011;8179;59.364;18.018;2023-02-28T13:21:57;36.43;;;35.27;;
16147;SDS011;8179;59.364;18.018;2023-02-28T13:24:42;32.43;;;31.33;;
16147;SDS011;8179;59.364;18.018;2023-02-28T13:29:59;37.23;;;36.03;;
16147;SDS011;8179;59.364;18.018;2023-02-28T13:32:30;38.53;;;37.27;;
16147;SDS011;8179;59.364;18.018;2023-02-28T13:37:54;37.60;;;35.47;;
16147;SDS011;8179;59.364;18.018;2023-02-28T13:40:35;37.70;;;36.50;;
16147;SDS011;8179;59.364;18.018;2023-02-28T13:43:05;40.93;;;39.50;;
16147;SDS011;8179;59.364;18.018;2023-02-28T13:45:33;43.47;;;41.73;;
16147;SDS011;8179;59.364;18.018;2023-02-28T13:48:03;38.13;;;36.93;;
16147;SDS011;8179;59.364;18.018;2023-02-28T13:50:32;42.10;;;40.57;;
16147;SDS011;8179;59.364;18.018;2023-02-28T13:55:48;42.37;;;41.07;;
16147;SDS011;8179;59.364;18.018;2023-02-28T13:58:25;37.73;;;36.53;;
16147;SDS011;8179;59.364;18.018;2023-02-28T14:03:46;40.33;;;38.53;;
16147;SDS011;8179;59.364;18.018;2023-02-28T14:06:21;48.57;;;46.97;;
16147;SDS011;8179;59.364;18.018;2023-02-28T14:08:52;37.50;;;35.63;;
16147;SDS011;8179;59.364;18.018;2023-02-28T14:11:28;45.23;;;43.73;;
16147;SDS011;8179;59.364;18.018;2023-02-28T14:13:56;31.80;;;30.27;;
16147;SDS011;8179;59.364;18.018;2023-02-28T14:16:23;37.20;;;35.77;;
16147;SDS011;8179;59.364;18.018;2023-02-28T14:18:55;39.33;;;38.07;;
16147;SDS011;8179;59.364;18.018;2023-02-28T14:21:23;32.90;;;31.87;;
16147;SDS011;8179;59.364;18.018;2023-02-28T14:29:29;42.20;;;40.80;;
16147;SDS011;8179;59.364;18.018;2023-02-28T14:32:01;37.33;;;35.97;;
16147;SDS011;8179;59.364;18.018;2023-02-28T14:34:39;51.37;;;49.57;;
16147;SDS011;8179;59.364;18.018;2023-02-28T14:37:09;40.87;;;39.37;;
16147;SDS011;8179;59.364;18.018;2023-02-28T14:39:39;40.70;;;39.30;;
16147;SDS011;8179;59.364;18.018;2023-02-28T14:44:54;37.53;;;35.83;;
16147;SDS011;8179;59.364;18.018;2023-02-28T14:47:21;41.40;;;40.00;;
16147;SDS011;8179;59.364;18.018;2023-02-28T14:49:49;50.30;;;48.20;;
16147;SDS011;8179;59.364;18.018;2023-02-28T14:52:20;36.27;;;34.63;;